Terminal Aerodrome Forecast
Issued by NWS

Home | Current Version | Previous Version | Text Only | Print | Product List | Glossary On
Versions: 1 2 3 4 5 6 7 8 9 10 11 12 13 14 15 16
000
FTUS41 KAKQ 271740
TAFPHF
TAF
KPHF 271740Z 2718/2818 01012G20KT 4SM -RA BR OVC015
      TEMPO 2718/2722 2SM -RA BR BKN008 OVC020
     FM272200 02008KT 5SM -RA BR OVC015
     FM280000 36008KT P6SM OVC025
     FM280300 34010KT P6SM BKN040
     FM281400 33012G20KT P6SM OVC025=

USA.gov is the U.S. government's official web portal to all federal, state and local government web resources and services.